Terminal Aerodrome Forecast
Issued by NWS St Louis, MO

Home | Current Version | Previous Version | Text Only | Print | Product List | Glossary On
Versions: 1 2 3 4 5 6 7 8 9 10 11 12 13 14 15 16 17 18 19 20 21 22 23 24 25 26 27 28 29 30 31 32
670
FTUS43 KLSX 240454 AAA
TAFCOU
TAF AMD
KCOU 240454Z 2405/2424 15010KT P6SM BKN200
      TEMPO 2406/2408 6SM -TSRA SCT035 BKN050CB
     FM241200 23013KT P6SM SCT008 BKN010
     FM241800 25017G25KT P6SM BKN025
     FM242100 26018G27KT P6SM BKN035=

USA.gov is the U.S. government's official web portal to all federal, state and local government web resources and services.